Latest Weather Observations for Latrobe Valley

IDV60801

Issued at 12:52 am EST Thursday 21 June 2018 (issued every 10 minutes, with the page automatically refreshed every 10 minutes)

About weather observations | Map of weather stations | Latest weather observations for VIC | Other Formats
Station Details ID: 085280 Name: LATROBE VALLEY AIRPORT Lat: -38.21 Lon: 146.47 Height: 55.7 m
Data from the previous 72 hours. | See also: Recent months at Latrobe Valley
Date/Time
EST
Temp
°C
App
Temp
°C
Dew
Point
°C
Rel
Hum
%
Delta-T
°C
Wind Press
QNH
hPa
Press
MSL
hPa
Rain since
9am
mm
Dir  Spd
km/h
Gust
km/h
Spd
kts
Gust
kts
21/12:37am 2.5 0.0 1.6 94 0.3 S 4 6 2 3 1027.7 1027.8 0.0
21/12:30am 2.6 0.5 1.7 94 0.3 SSW 2 7 1 4 1027.8 1027.9 0.0
21/12:10am 2.6 0.9 1.7 94 0.3 CALM 0 0 0 0 1027.9 1028.0 0.0
21/12:00am 3.3 1.7 2.4 94 0.4 CALM 0 0 0 0 1027.9 1028.0 0.0
 
Date/Time
EST
Temp
°C
App
Temp
°C
Dew
Point
°C
Rel
Hum
%
Delta-T
°C
Wind Press
QNH
hPa
Press
MSL
hPa
Rain since
9am
mm
Dir  Spd
km/h
Gust
km/h
Spd
kts
Gust
kts
20/11:51pm 3.2 1.6 2.3 94 0.4 CALM 0 0 0 0 1028.0 1028.1 0.0
20/11:30pm 3.7 2.2 2.8 94 0.4 CALM 0 0 0 0 1028.1 1028.2 0.0
20/11:00pm 3.8 2.3 2.9 94 0.4 CALM 0 0 0 0 1028.2 1028.3 0.0
20/10:41pm 3.7 1.8 2.7 93 0.4 SSW 2 7 1 4 1028.0 1028.1 0.0
20/10:30pm 4.9 3.2 4.0 94 0.4 SSW 2 7 1 4 1028.0 1028.1 0.0
20/10:00pm 4.9 2.4 3.9 93 0.4 WSW 6 7 3 4 1028.0 1028.1 0.0
20/09:30pm 5.2 3.9 4.2 93 0.4 CALM 0 7 0 4 1027.9 1028.0 0.0
20/09:00pm 4.9 3.5 3.7 92 0.5 CALM 0 0 0 0 1027.9 1028.0 0.0
20/08:56pm 4.9 3.5 3.7 92 0.5 CALM 0 0 0 0 1027.9 1028.0 0.0
20/08:30pm 6.1 3.8 4.9 92 0.5 SW 6 6 3 3 1027.7 1027.8 0.0
20/08:00pm 5.8 3.8 4.4 91 0.6 SSW 4 7 2 4 1027.6 1027.7 0.0
20/07:30pm 6.3 5.1 4.8 90 0.7 CALM 0 0 0 0 1027.3 1027.4 0.0
20/07:00pm 6.7 5.6 5.0 89 0.7 CALM 0 0 0 0 1027.3 1027.4 0.0
20/06:30pm 7.4 6.4 5.5 88 0.8 CALM 0 6 0 3 1026.9 1027.0 0.0
20/06:00pm 8.0 7.1 6.0 87 0.9 CALM 0 0 0 0 1026.9 1027.0 0.0
20/05:30pm 8.4 6.7 5.9 84 1.1 SSE 4 6 2 3 1026.8 1026.9 0.0
20/05:00pm 9.2 8.3 5.9 80 1.5 CALM 0 6 0 3 1026.6 1026.7 0.0
20/04:30pm 9.7 7.5 6.2 79 1.6 NE 7 9 4 5 1026.6 1026.7 0.0
20/04:00pm 10.1 8.1 7.0 81 1.5 NNE 7 9 4 5 1026.6 1026.7 0.0
20/03:30pm 11.2 9.4 7.3 77 1.9 N 6 7 3 4 1026.9 1027.0 0.0
20/03:00pm 11.5 9.6 7.4 76 2.0 N 7 9 4 5 1026.8 1026.9 0.0
20/02:30pm 11.9 11.2 7.0 72 2.4 CALM 0 0 0 0 1026.8 1026.9 0.0
20/02:00pm 12.4 11.5 7.7 73 2.3 NNE 2 6 1 3 1027.0 1027.1 0.0
20/01:30pm 11.5 10.8 7.0 74 2.2 CALM 0 6 0 3 1027.2 1027.3 0.0
20/01:00pm 11.7 11.6 9.3 85 1.2 CALM 0 0 0 0 1027.6 1027.7 0.0
20/12:30pm 9.9 9.6 8.8 93 0.5 CALM 0 6 0 3 1027.8 1027.9 0.0
20/12:00pm 8.7 8.2 7.9 95 0.4 CALM 0 0 0 0 1028.3 1028.4 0.0
20/11:30am 7.2 6.0 6.6 96 0.3 SW 2 7 1 4 1028.7 1028.8 0.0
20/11:00am 6.5 5.6 5.9 96 0.3 CALM 0 0 0 0 1028.9 1029.0 0.0
20/10:32am 5.5 3.6 4.9 96 0.3 SW 4 7 2 4 1029.1 1029.2 0.0
20/10:30am 5.5 3.6 4.9 96 0.3 SW 4 7 2 4 1029.1 1029.2 0.0
20/10:24am 5.4 3.1 4.8 96 0.3 SW 6 7 3 4 1029.2 1029.3 0.0
20/10:00am 4.7 2.3 4.1 96 0.3 SW 6 9 3 5 1029.3 1029.5 0.0
20/09:30am 3.5 2.0 2.9 96 0.2 CALM 0 0 0 0 1029.1 1029.2 0.0
20/09:00am 2.7 1.0 2.1 96 0.2 CALM 0 0 0 0 1029.1 1029.2 0.4
20/08:30am 2.0 -0.1 1.4 96 0.2 WSW 2 6 1 3 1029.0 1029.1 0.4
20/08:00am 1.5 -0.7 0.9 96 0.2 SSW 2 7 1 4 1028.7 1028.8 0.4
20/07:30am 0.8 -1.2 0.1 95 0.3 CALM 0 0 0 0 1028.5 1028.6 0.4
20/07:00am 0.9 -1.1 0.2 95 0.3 CALM 0 0 0 0 1028.3 1028.4 0.4
20/06:30am 1.1 -1.6 0.4 95 0.3 WSW 4 7 2 4 1028.3 1028.4 0.4
20/06:00am 1.4 -0.5 0.7 95 0.3 CALM 0 0 0 0 1028.2 1028.3 0.4
20/05:30am 1.9 0.1 1.2 95 0.3 CALM 0 0 0 0 1027.8 1027.9 0.2
20/05:00am 2.7 -0.1 2.0 95 0.3 SE 6 7 3 4 1027.8 1027.9 0.2
20/04:30am 3.2 0.5 2.5 95 0.3 S 6 9 3 5 1027.8 1027.9 0.2
20/04:00am 3.4 0.5 2.7 95 0.3 ENE 7 9 4 5 1027.5 1027.6 0.2
20/03:30am 2.4 -1.0 1.7 95 0.3 NNW 9 13 5 7 1027.8 1027.9 0.2
20/03:15am 3.2 0.3 2.5 95 0.3 NNE 7 9 4 5 1027.6 1027.7 0.2
20/03:00am 3.9 1.3 3.2 95 0.3 NE 6 7 3 4 1027.7 1027.8 0.2
20/02:30am 4.2 2.0 3.3 94 0.4 NE 4 7 2 4 1027.7 1027.8 0.2
20/02:28am 4.5 2.3 3.6 94 0.4 ENE 4 7 2 4 1027.7 1027.8 0.2
20/02:00am 5.7 3.4 5.0 95 0.3 E 6 9 3 5 1027.6 1027.7 0.2
20/01:30am 5.8 2.9 4.9 94 0.4 ENE 9 15 5 8 1027.9 1028.0 0.2
20/01:16am 6.2 3.5 5.5 95 0.3 E 9 13 5 7 1027.9 1028.0 0.2
20/01:13am 6.1 3.4 5.4 95 0.3 E 9 13 5 7 1027.9 1028.0 0.2
20/01:00am 5.5 2.6 4.6 94 0.4 E 9 15 5 8 1027.8 1027.9 0.2
20/12:30am 5.2 1.9 4.3 94 0.4 NE 11 15 6 8 1027.8 1027.9 0.2
20/12:09am 5.1 1.3 4.1 93 0.4 NNE 13 15 7 8 1027.9 1028.0 0.2
20/12:00am 5.0 1.6 3.8 92 0.5 NNE 11 15 6 8 1028.1 1028.2 0.2
 
Date/Time
EST
Temp
°C
App
Temp
°C
Dew
Point
°C
Rel
Hum
%
Delta-T
°C
Wind Press
QNH
hPa
Press
MSL
hPa
Rain since
9am
mm
Dir  Spd
km/h
Gust
km/h
Spd
kts
Gust
kts
19/11:30pm 7.3 5.1 6.2 93 0.5 E 7 11 4 6 1028.5 1028.6 0.2
19/11:00pm 7.7 4.4 6.6 93 0.5 E 13 19 7 10 1028.8 1028.9 0.2
19/10:30pm 7.5 5.3 6.4 93 0.5 E 7 13 4 7 1029.4 1029.6 0.2
19/10:00pm 7.4 4.8 6.3 93 0.5 E 9 15 5 8 1029.4 1029.6 0.2
19/09:30pm 7.4 4.8 6.3 93 0.5 E 9 11 5 6 1029.3 1029.5 0.2
19/09:00pm 7.2 4.6 6.1 93 0.5 E 9 11 5 6 1029.0 1029.1 0.0
19/08:30pm 6.3 3.5 5.1 92 0.5 E 9 11 5 6 1028.8 1028.9 0.0
19/08:14pm 6.3 4.4 5.1 92 0.5 SE 4 7 2 4 1028.9 1029.0 0.0
19/08:00pm 6.5 5.4 5.3 92 0.5 CALM 0 0 0 0 1028.9 1029.0 0.0
19/07:53pm 6.1 4.9 4.7 91 0.6 CALM 0 0 0 0 1028.8 1028.9 0.0
19/07:30pm 7.7 5.5 6.3 91 0.6 ENE 7 9 4 5 1028.7 1028.8 0.0
19/07:00pm 7.5 4.5 6.0 90 0.7 N 11 13 6 7 1028.5 1028.6 0.0
19/06:30pm 7.0 4.2 5.2 88 0.8 NW 9 11 5 6 1028.4 1028.5 0.0
19/06:00pm 9.4 6.5 6.7 83 1.3 E 11 13 6 7 1028.0 1028.1 0.0
19/05:30pm 10.2 8.2 7.1 81 1.5 ENE 7 11 4 6 1028.0 1028.1 0.0
19/05:00pm 11.0 8.6 7.1 77 1.9 E 9 15 5 8 1027.8 1027.9 0.0
19/04:30pm 11.7 9.4 7.4 75 2.1 ENE 9 20 5 11 1027.7 1027.8 0.0
19/04:00pm 12.2 9.1 7.3 72 2.4 ENE 13 19 7 10 1027.7 1027.8 0.0
19/03:30pm 12.8 9.4 7.7 71 2.5 NE 15 22 8 12 1027.8 1027.9 0.0
19/03:00pm 12.6 8.3 7.1 69 2.6 NE 19 26 10 14 1027.7 1027.8 0.0
19/02:30pm 13.0 8.8 7.5 69 2.7 NE 19 30 10 16 1027.2 1027.3 0.0
19/02:00pm 13.3 10.1 8.4 72 2.4 ENE 15 26 8 14 1027.0 1027.1 0.0
19/01:30pm 12.6 8.3 7.7 72 2.4 ENE 20 32 11 17 1026.9 1027.0 0.0
19/01:00pm 12.4 8.4 8.9 79 1.7 NE 20 30 11 16 1027.8 1027.9 0.0
19/12:30pm 11.8 7.4 7.5 75 2.1 NE 20 28 11 15 1028.6 1028.7 0.0
19/12:00pm 12.4 9.9 8.3 76 2.0 NE 11 15 6 8 1029.2 1029.3 0.0
19/11:30am 11.3 11.3 9.7 90 0.8 CALM 0 0 0 0 1029.8 1030.0 0.0
19/11:00am 8.8 7.0 7.9 94 0.4 SW 7 9 4 5 1030.2 1030.4 0.0
19/10:30am 6.9 4.9 6.2 95 0.3 WSW 6 7 3 4 1030.2 1030.4 0.0
19/10:00am 5.4 3.8 4.7 95 0.3 WNW 2 6 1 3 1030.4 1030.6 0.0
19/09:30am 4.4 1.7 3.8 96 0.3 W 7 7 4 4 1030.4 1030.6 0.0
19/09:00am 2.4 -0.1 1.7 95 0.3 WSW 4 6 2 3 1030.4 1030.6 0.0
19/08:30am 1.0 -2.1 0.3 95 0.3 SSW 6 7 3 4 1030.2 1030.4 0.0
19/08:00am 0.0 -2.1 -0.7 95 0.2 CALM 0 0 0 0 1029.7 1029.9 0.0
19/07:30am 0.2 -1.9 -0.5 95 0.3 CALM 0 0 0 0 1029.3 1029.5 0.0
19/07:00am 1.1 -1.2 0.4 95 0.3 SSW 2 6 1 3 1029.0 1029.1 0.0
19/06:41am 1.3 -0.6 0.6 95 0.3 CALM 0 6 0 3 1028.8 1028.9 0.0
19/06:30am 1.7 -1.3 1.0 95 0.3 WSW 6 6 3 3 1028.7 1028.8 0.0
19/06:22am 1.5 -1.5 0.8 95 0.3 W 6 7 3 4 1028.7 1028.8 0.0
19/06:05am 1.2 -1.8 0.5 95 0.3 NW 6 6 3 3 1028.7 1028.8 0.0
19/06:00am 1.0 -2.1 0.3 95 0.3 NW 6 7 3 4 1028.6 1028.7 0.0
19/05:54am 0.5 -2.8 -0.2 95 0.3 WNW 7 7 4 4 1028.6 1028.7 0.0
19/05:48am 0.8 -2.5 0.1 95 0.3 W 7 7 4 4 1028.6 1028.7 0.0
19/05:30am 1.0 -2.3 0.3 95 0.3 W 7 7 4 4 1028.5 1028.6 0.0
19/05:03am 0.9 -2.2 0.0 94 0.3 WSW 6 9 3 5 1028.2 1028.3 0.0
19/05:00am 1.1 -2.0 0.2 94 0.3 SSW 6 7 3 4 1028.2 1028.3 0.0
19/04:30am 2.5 0.4 1.8 95 0.3 SSE 2 6 1 3 1028.1 1028.2 0.0
19/04:00am 2.8 0.4 2.1 95 0.3 S 4 7 2 4 1028.1 1028.2 0.0
19/03:30am 2.8 0.0 2.1 95 0.3 WNW 6 7 3 4 1028.1 1028.2 0.0
19/03:00am 3.2 0.3 2.5 95 0.3 WNW 7 9 4 5 1028.3 1028.4 0.0
19/02:30am 2.8 1.1 1.9 94 0.4 CALM 0 0 0 0 1028.3 1028.4 0.0
19/02:00am 3.2 0.9 2.5 95 0.3 S 4 9 2 5 1028.4 1028.5 0.0
19/01:30am 2.5 0.0 1.6 94 0.3 WSW 4 9 2 5 1028.3 1028.4 0.0
19/01:00am 3.8 2.3 2.9 94 0.4 CALM 0 0 0 0 1028.6 1028.7 0.0
19/12:30am 3.6 2.0 2.7 94 0.4 CALM 0 0 0 0 1028.7 1028.8 0.0
19/12:00am 3.1 1.5 2.2 94 0.4 CALM 0 0 0 0 1028.5 1028.6 0.0
 
Date/Time
EST
Temp
°C
App
Temp
°C
Dew
Point
°C
Rel
Hum
%
Delta-T
°C
Wind Press
QNH
hPa
Press
MSL
hPa
Rain since
9am
mm
Dir  Spd
km/h
Gust
km/h
Spd
kts
Gust
kts
18/11:30pm 2.8 0.7 1.9 94 0.4 SSW 2 9 1 5 1028.3 1028.4 0.0
18/11:00pm 3.6 0.9 2.6 93 0.4 SSW 6 9 3 5 1028.6 1028.7 0.0
18/10:30pm 3.6 2.0 2.6 93 0.4 CALM 0 6 0 3 1028.4 1028.5 0.0
18/10:00pm 2.9 -0.5 1.7 92 0.5 W 9 11 5 6 1028.2 1028.3 0.0
18/09:30pm 3.2 1.1 2.0 92 0.5 NNE 2 9 1 5 1028.4 1028.5 0.0
18/09:00pm 4.0 2.5 2.8 92 0.5 CALM 0 0 0 0 1028.2 1028.3 0.0
18/08:30pm 3.9 2.3 2.7 92 0.5 CALM 0 0 0 0 1028.1 1028.2 0.0
18/08:00pm 5.0 2.5 3.8 92 0.5 SSE 6 9 3 5 1027.9 1028.0 0.0
18/07:42pm 4.9 3.5 3.6 91 0.5 CALM 0 2 0 1 1027.8 1027.9 0.0
18/07:30pm 4.1 1.8 2.6 90 0.6 WSW 4 7 2 4 1027.6 1027.7 0.0
18/07:00pm 6.0 4.8 4.5 90 0.6 CALM 0 0 0 0 1027.5 1027.6 0.0
18/06:30pm 6.6 4.3 4.8 88 0.8 WNW 6 7 3 4 1027.1 1027.2 0.0
18/06:00pm 7.1 4.7 4.4 83 1.2 W 6 9 3 5 1026.7 1026.8 0.0
18/05:30pm 8.6 7.5 5.0 78 1.6 CALM 0 0 0 0 1026.5 1026.6 0.0
18/05:00pm 9.9 8.8 5.3 73 2.1 CALM 0 0 0 0 1026.2 1026.3 0.0
18/04:30pm 11.0 9.6 5.3 68 2.6 SSE 2 7 1 4 1026.0 1026.1 0.0
18/04:00pm 11.9 8.6 6.4 69 2.6 SW 13 20 7 11 1025.5 1025.6 0.0
18/03:30pm 12.2 8.8 7.5 73 2.3 WNW 15 17 8 9 1025.2 1025.3 0.0
18/03:00pm 12.1 8.2 7.2 72 2.4 W 17 19 9 10 1025.1 1025.2 0.0
18/02:30pm 13.2 9.0 8.3 72 2.4 W 20 26 11 14 1025.0 1025.1 0.0
18/02:00pm 12.9 9.6 8.0 72 2.4 W 15 20 8 11 1024.8 1024.9 0.0
18/01:30pm 12.6 8.4 7.3 70 2.6 SW 19 24 10 13 1024.8 1024.9 0.0
18/01:00pm 12.3 8.2 8.0 75 2.1 W 19 24 10 13 1024.9 1025.0 0.0
18/12:30pm 12.0 8.4 8.5 79 1.7 WSW 17 22 9 12 1025.2 1025.3 0.0
18/12:00pm 11.9 8.5 9.1 83 1.4 W 17 22 9 12 1025.4 1025.5 0.0
18/11:30am 11.4 8.3 9.0 85 1.2 W 15 20 8 11 1025.7 1025.8 0.0
18/11:00am 11.5 8.1 9.2 86 1.1 W 17 22 9 12 1025.5 1025.6 0.0
18/10:30am 11.2 8.0 10.1 93 0.6 W 17 22 9 12 1025.6 1025.7 0.0
18/10:00am 10.1 8.3 9.3 95 0.4 WNW 9 13 5 7 1025.6 1025.7 0.0
18/09:30am 8.5 6.6 7.7 95 0.4 WSW 7 9 4 5 1025.3 1025.4 0.0
18/09:00am 8.0 6.0 7.2 95 0.4 SSW 7 9 4 5 1025.2 1025.3 3.8
18/08:30am 7.4 5.3 6.7 95 0.3 W 7 9 4 5 1024.5 1024.6 3.8
18/08:00am 6.9 4.9 6.2 95 0.3 SW 6 7 3 4 1024.4 1024.5 3.8
18/07:30am 6.2 3.9 5.5 95 0.3 WSW 7 9 4 5 1023.9 1024.0 3.8
18/07:00am 6.3 4.2 5.6 95 0.3 S 6 7 3 4 1023.6 1023.7 3.8
18/06:56am 6.3 4.2 5.6 95 0.3 S 6 7 3 4 1023.6 1023.7 3.8
18/06:30am 6.3 4.2 5.6 95 0.3 SW 6 7 3 4 1023.3 1023.4 3.8
18/06:00am 5.7 3.2 4.8 94 0.4 WSW 7 9 4 5 1023.0 1023.1 3.8
18/05:40am 6.8 4.5 5.9 94 0.4 SW 7 7 4 4 1022.8 1022.9 3.8
18/05:30am 7.3 5.1 6.4 94 0.4 WSW 7 9 4 5 1022.8 1022.9 3.8
18/05:00am 7.5 5.4 6.6 94 0.4 SSW 7 7 4 4 1022.5 1022.6 3.8
18/04:30am 7.4 4.5 6.5 94 0.4 WNW 11 13 6 7 1022.1 1022.2 3.8
18/04:00am 7.7 4.9 6.8 94 0.4 WNW 11 13 6 7 1021.9 1022.0 3.6
18/03:30am 7.5 5.6 6.6 94 0.4 W 6 9 3 5 1021.8 1021.9 3.6
18/03:00am 7.2 6.4 6.3 94 0.4 CALM 0 2 0 1 1021.8 1021.9 3.0
18/02:30am 5.8 3.3 4.6 92 0.5 WSW 7 9 4 5 1021.6 1021.7 2.8
18/02:00am 7.1 4.8 5.9 92 0.5 WNW 7 9 4 5 1021.3 1021.4 2.8
18/01:30am 7.7 6.1 6.3 91 0.6 WSW 4 9 2 5 1020.8 1020.9 2.8
18/01:00am 8.2 5.0 6.8 91 0.6 WSW 13 17 7 9 1020.7 1020.8 2.8

Other Formats:

Comma delimited format used in spreadsheet applications
http://www.bom.gov.au/fwo/IDV60801/IDV60801.94891.axf

JavaScript Object Notation format (JSON) in row-major order
http://www.bom.gov.au/fwo/IDV60801/IDV60801.94891.json